Hauptseite
METAR-TAF:

METAR-TAF

Flughäfen :

Flughafen Dakar-Léopold Sédar Senghor

Dakar, Senegal

Breite: 14-44N, Länge: 017-30W, Höhe: 27 m

Beobachtung

Neuester Wetterbericht von vor 29 Minuten, um 09:00 UTC
Wind 4 kt aus Nordwest
Temperatur 24°C
Luftfeuchtigkeit 89%
Luftdruck 1012 hPa
Sichtweite 10 km oder mehr
keine Wolken unter 1500 m und keine Kumulonimbus oder Gewitterwolken

METAR: GOOY 270900Z 32004KT CAVOK 24/22 Q1012

Zeit: 09:29 (09:29 UTC)

Prognose

Neuester Wetterbericht von vor 3 Stunden und 59 Minuten, um 05:30 UTC
Gültige Prognose vom 27 um 06 UTC bis 28 um 12 UTC
Wind 8 kt aus Nordwest
Sichtweite 10 km oder mehr
Aufgelockert bewölkt in der Höhe von 1100 ft

TAF: GOOY 270530Z 2706/2812 32008KT 9999 SCT011

Wetterbeobachtungen und Prognosen von mehr als 4000 Flughäfen (METAR und TAF Bericht).

Die verfügbaren Stationen werden durch gelbe und rote Markierungen auf der Karte dargestellt.

Führen Sie die Maus auf sie, um den Namen der Station zu sehen.

Darauf klicken, um die Beobachtung von Wetterbeobachtungen und Prognosen zu sehen.

Um die Karte zu ändern : klicken Sie auf den grünen Tasten mit einem schwarzen Kreuz Zum Vergrößern, auf den grünen Button mit einem Gedankenstrich zu verkleinern, oder auf die grünen Pfeile für benachbarte Karten.


METAR-TAF: